Nouméa, Nouvelle-Calédonie

06:59 NCT le 07 juillet 2015 (GMT +1100)
La Tontouta | | Change Station
CLOSE
Current Station
Aéroport
Location: La Tontouta,
Altitude: 52 ft
Stations météo à proximité

Alt. 52 ft 22.02 °S, 166.22 °E | Updated 29 minutes ago

Overcast
Couvert
64 ° F
Paraît 64 ° F
N
0
Vent Variable Vent de Nord

Aujourd'hui
Haut(e) -- | Bas -- ° F
--% Risque de précip.
Hier
Haut(e) -- | Bas -- ° F
Precip. -- pouce
6:34 AM 5:23 PM
Lune gibbeuse décroissante, 72% visible
Pression 29.98 pouce
Visibilité 6.2 Miles terrestres
Nuages Couvert 5200 ft
Point de rosée 59 ° F
Humidité 83%
Précipitations 0.00 pouce
Profondeur de la couche neigeuse Non disponible.
UV 0 sur 12
Pollen Non disponible.
Qualité de l'air Non disponible.
Flu Activity Non disponible.
METAR NWWW 061930Z AUTO 00000KT 9999 OVC052 18/15 Q1015

More Conditions Fewer Conditions

Pression 29.98 pouce
Visibilité 6.2 Miles terrestres
Nuages Couvert 5200 ft
Point de rosée 59 ° F
Humidité 83%
Précipitations 0.00 pouce
Profondeur de la couche neigeuse Non disponible.
UV 0 sur 12
Pollen Non disponible.
Qualité de l'air Non disponible.
Flu Activity Non disponible.
METAR NWWW 061930Z AUTO 00000KT 9999 OVC052 18/15 Q1015

More Conditions Fewer Conditions

10-Day Weather Forecast

×

Almanac

Astronomie

Jul. 07, 2015 Lever Coucher
Temps réel
Crépuscule civil
Crépuscule nautique
Crépuscule astronomique
Lune
Durée de lumière visible
Longueur du jour
Tomorrow will be .
, % of the Moon is Illuminated

Extrêmes aujourd'hui

Country Highs Country Lows

Community

WunderPhotos

Upload Photos

1,835,625 Photos téléchargées !

WunderBlogs® & News

Nearby

Qualité de l'air

  Qualité de l'air Indice de la qualité de l'air Polluant
Not available.

Épaisseur de neige

Station Depth Altitude

Activité sismique

Ville Distance Mag. Time & Date
Minimum magnitude displayed is 2.5.

Températures des eaux côtières

Lieu Température

Stations

Stations météo à proximité

Emplacement de la station Température Refroidissement éolien Point de rosée Humidité Vent Precip. Alt. Mise à jour Type